Time;durP1;ratioP1;P1;durP2;ratioP2;P2;SDS_P1;SDS_P2;PMS_P1;PMS_P2;Temp;Humidity;BMP_temperature;BMP_pressure;BME280_temperature;BME280_humidity;BME280_pressure;Samples;Min_cycle;Max_cycle;Signal;HPM_P1;HPM_P2
2022/11/15 00:01:40;;;;;;;;;7.67;7.33;;;;;13.28;100.00;100633.66;5067168;28;45291;-76
2022/11/15 00:04:06;;;;;;;;;8.67;8.67;;;;;13.30;100.00;100634.31;5076866;28;44699;-76
2022/11/15 00:06:32;;;;;;;;;8.33;8.33;;;;;13.32;100.00;100642.94;5072467;28;45344;-76
2022/11/15 00:08:58;;;;;;;;;8.00;8.00;;;;;13.32;100.00;100641.09;5065619;28;46434;-77
2022/11/15 00:11:24;;;;;;;;;6.67;6.67;;;;;13.32;100.00;100645.63;5066012;28;45307;-77
2022/11/15 00:13:49;;;;;;;;;8.33;8.33;;;;;13.27;100.00;100646.19;5064619;28;44729;-76
2022/11/15 00:16:15;;;;;;;;;9.00;8.33;;;;;13.23;100.00;100637.75;5070392;28;45108;-76
2022/11/15 00:18:40;;;;;;;;;8.33;8.33;;;;;13.28;100.00;100637.16;5066868;28;47374;-76
2022/11/15 00:21:11;;;;;;;;;10.00;7.67;;;;;13.33;100.00;100636.59;5067748;28;44814;-76
2022/11/15 00:23:37;;;;;;;;;10.67;9.67;;;;;13.28;100.00;100631.81;5071993;28;45187;-76
2022/11/15 00:26:03;;;;;;;;;10.33;10.33;;;;;13.30;100.00;100634.31;5076327;28;46908;-76
2022/11/15 00:28:29;;;;;;;;;11.00;10.33;;;;;13.27;100.00;100627.50;5072277;28;47412;-76
2022/11/15 00:31:00;;;;;;;;;11.33;10.67;;;;;13.28;100.00;100633.66;5064955;28;44638;-76
2022/11/15 00:33:26;;;;;;;;;11.00;9.33;;;;;13.28;100.00;100629.16;5077148;28;44799;-76
2022/11/15 00:35:51;;;;;;;;;8.67;8.67;;;;;13.19;100.00;100604.47;5078426;28;44973;-75
2022/11/15 00:38:16;;;;;;;;;10.33;10.33;;;;;13.19;100.00;100617.81;5075159;28;44897;-75
2022/11/15 00:40:42;;;;;;;;;9.67;8.33;;;;;13.24;100.00;100622.56;5076994;28;46168;-76
2022/11/15 00:43:07;;;;;;;;;8.00;8.00;;;;;13.19;100.00;100617.81;5077499;28;46463;-76
2022/11/15 00:45:33;;;;;;;;;7.67;7.33;;;;;13.21;100.00;100614.94;5074593;28;45319;-76
2022/11/15 00:47:58;;;;;;;;;8.67;8.00;;;;;13.22;100.00;100622.75;5077033;28;45984;-76
2022/11/15 00:50:23;;;;;;;;;7.67;6.33;;;;;13.13;100.00;100611.41;5077348;28;50885;-76
2022/11/15 00:52:49;;;;;;;;;8.67;8.00;;;;;13.11;100.00;100612.63;5076780;28;45291;-76
2022/11/15 00:55:16;;;;;;;;;9.33;9.33;;;;;13.12;100.00;100611.59;5074772;28;45669;-76
2022/11/15 00:57:41;;;;;;;;;8.00;7.33;;;;;13.03;100.00;100604.75;5082292;28;44973;-76
2022/11/15 01:00:10;;;;;;;;;5.67;5.67;;;;;12.93;100.00;100597.91;5081778;28;45374;-76
2022/11/15 01:02:35;;;;;;;;;7.00;7.00;;;;;12.95;100.00;100603.88;5084516;27;45028;-76
2022/11/15 01:05:01;;;;;;;;;8.00;7.00;;;;;12.85;100.00;100590.06;5079672;28;45654;-76
2022/11/15 01:07:26;;;;;;;;;7.33;7.33;;;;;12.81;100.00;100596.81;5079656;28;46295;-76
2022/11/15 01:09:51;;;;;;;;;7.00;6.33;;;;;12.76;100.00;100600.03;5080319;28;44755;-76
2022/11/15 01:12:17;;;;;;;;;5.00;5.00;;;;;12.69;100.00;100599.16;5081054;28;44716;-76
2022/11/15 01:14:42;;;;;;;;;7.00;6.00;;;;;12.69;100.00;100607.16;5079696;28;46333;-75
2022/11/15 01:17:08;;;;;;;;;8.67;7.67;;;;;12.63;100.00;100606.06;5079549;28;52276;-77
2022/11/15 01:19:33;;;;;;;;;8.00;7.67;;;;;12.48;100.00;100592.84;5075753;28;45411;-76
2022/11/15 01:21:58;;;;;;;;;7.00;7.00;;;;;12.48;100.00;100593.63;5077359;28;45303;-75
2022/11/15 01:24:24;;;;;;;;;7.00;7.00;;;;;12.44;100.00;100589.72;5074563;28;46589;-76
2022/11/15 01:26:49;;;;;;;;;6.00;6.00;;;;;12.34;100.00;100582.03;5078770;28;45309;-77
2022/11/15 01:29:14;;;;;;;;;9.67;7.00;;;;;12.25;100.00;100583.97;5077020;28;45347;-77
2022/11/15 01:31:39;;;;;;;;;6.00;6.00;;;;;12.19;100.00;100584.75;5075251;28;45258;-76
2022/11/15 01:34:05;;;;;;;;;6.00;5.67;;;;;12.17;100.00;100578.78;5076341;28;45259;-76
2022/11/15 01:36:30;;;;;;;;;5.00;5.00;;;;;12.06;100.00;100569.41;5073723;28;47277;-76
2022/11/15 01:38:57;;;;;;;;;6.00;6.00;;;;;12.07;100.00;100575.59;5073748;28;46282;-76
2022/11/15 01:41:27;;;;;;;;;7.33;6.33;;;;;12.02;100.00;100572.63;5072760;28;45256;-76
2022/11/15 01:43:55;;;;;;;;;6.00;5.67;;;;;11.95;100.00;100561.91;5070505;28;45437;-76
2022/11/15 01:46:29;;;;;;;;;5.00;5.00;;;;;11.83;100.00;100551.72;5074131;28;45417;-76
2022/11/15 01:49:00;;;;;;;;;5.67;5.67;;;;;11.73;100.00;100541.38;5065573;28;44622;-76
2022/11/15 01:51:29;;;;;;;;;8.33;6.67;;;;;11.71;100.00;100546.06;5076987;28;45353;-76
2022/11/15 01:53:59;;;;;;;;;5.67;5.67;;;;;11.70;100.00;100549.75;5075511;28;45271;-76
2022/11/15 01:56:29;;;;;;;;;7.00;6.00;;;;;11.66;100.00;100545.81;5073961;28;46195;-76
2022/11/15 01:58:58;;;;;;;;;5.00;5.00;;;;;11.60;100.00;100536.75;5076555;28;45252;-76
2022/11/15 02:01:26;;;;;;;;;4.67;4.67;;;;;11.61;100.00;100551.69;5076134;28;45293;-76
2022/11/15 02:03:56;;;;;;;;;3.33;3.33;;;;;11.56;100.00;100553.25;5075114;28;45468;-76
2022/11/15 02:06:22;;;;;;;;;5.00;4.33;;;;;11.51;100.00;100550.31;5073085;28;45471;-76
2022/11/15 02:08:49;;;;;;;;;6.33;6.00;;;;;11.41;100.00;100535.47;5072699;28;45252;-76
2022/11/15 02:11:15;;;;;;;;;5.67;5.00;;;;;11.39;100.00;100532.16;5072946;28;45391;-76
2022/11/15 02:13:41;;;;;;;;;5.67;5.67;;;;;11.34;100.00;100534.53;5071848;28;46457;-76
2022/11/15 02:16:44;;;;;;;;;8.00;7.00;;;;;11.30;100.00;100526.13;5071261;28;46210;-76
2022/11/15 02:19:31;;;;;;;;;6.00;6.00;;;;;11.25;100.00;100525.84;5070582;28;45400;-76
2022/11/15 02:22:35;;;;;;;;;5.00;5.00;;;;;11.22;100.00;100524.38;5078299;28;45327;-76
2022/11/15 02:25:38;;;;;;;;;5.00;5.00;;;;;11.16;100.00;100514.47;5075535;28;45703;-76
2022/11/15 02:28:22;;;;;;;;;4.33;4.33;;;;;11.12;100.00;100513.19;5073695;28;47644;-77
2022/11/15 02:31:25;;;;;;;;;4.00;4.00;;;;;11.10;100.00;100501.91;5061656;28;45249;-76
2022/11/15 02:34:05;;;;;;;;;7.00;5.33;;;;;11.06;100.00;100496.13;5060910;28;45231;-76
2022/11/15 02:36:36;;;;;;;;;6.33;6.33;;;;;11.03;100.00;100491.19;5071652;28;44891;-76
2022/11/15 02:39:34;;;;;;;;;4.67;4.00;;;;;10.99;100.00;100493.38;5069584;28;47437;-76
2022/11/15 02:45:02;;;;;;;;;5.00;5.00;;;;;10.87;100.00;100484.22;5070638;28;45358;-76
2022/11/15 02:47:31;;;;;;;;;5.67;5.00;;;;;10.78;100.00;100470.19;5072722;28;45402;-76
2022/11/15 02:50:07;;;;;;;;;5.00;5.00;;;;;10.78;100.00;100466.69;5074827;28;46075;-76
2022/11/15 02:52:32;;;;;;;;;5.33;5.33;;;;;10.75;100.00;100465.22;5069979;28;45374;-76
2022/11/15 02:55:00;;;;;;;;;3.33;3.33;;;;;10.73;100.00;100456.59;5071765;28;45296;-76
2022/11/15 02:57:41;;;;;;;;;4.00;4.00;;;;;10.72;100.00;100460.28;5070823;28;45457;-76
2022/11/15 03:00:10;;;;;;;;;3.00;3.00;;;;;10.69;100.00;100458.78;5071342;28;45147;-77
2022/11/15 03:02:38;;;;;;;;;5.00;5.00;;;;;10.69;100.00;100458.78;5071291;28;45025;-76
2022/11/15 03:05:33;;;;;;;;;4.00;4.00;;;;;10.66;100.00;100453.88;5070652;28;45262;-76
2022/11/15 03:08:18;;;;;;;;;4.33;3.67;;;;;10.58;100.00;100440.63;5071976;28;46346;-76
2022/11/15 03:10:46;;;;;;;;;3.33;3.33;;;;;10.60;100.00;100449.28;5070863;28;46030;-76
2022/11/15 03:13:18;;;;;;;;;2.00;2.00;;;;;10.68;100.00;100443.84;5071687;28;45265;-76
2022/11/15 03:15:56;;;;;;;;;3.00;3.00;;;;;10.61;100.00;100440.28;5067587;28;45274;-76
2022/11/15 03:18:41;;;;;;;;;5.33;3.00;;;;;10.58;100.00;100438.81;5067108;28;46448;-76
2022/11/15 03:21:10;;;;;;;;;3.00;3.00;;;;;10.57;100.00;100441.66;5067698;28;47208;-76
2022/11/15 03:23:37;;;;;;;;;2.00;2.00;;;;;10.50;100.00;100425.59;5070572;28;45173;-76
2022/11/15 03:26:06;;;;;;;;;2.67;2.33;;;;;10.56;100.00;100432.00;5068664;28;45413;-76
2022/11/15 03:28:40;;;;;;;;;2.00;2.00;;;;;10.56;100.00;100432.00;5068987;28;45305;-76
2022/11/15 03:33:57;;;;;;;;;3.00;3.00;;;;;10.46;100.00;100411.88;5065694;28;45320;-76
2022/11/15 03:36:24;;;;;;;;;4.67;2.67;;;;;10.55;100.00;100417.09;5067256;28;45295;-76
2022/11/15 03:38:55;;;;;;;;;3.00;3.00;;;;;10.55;100.00;100415.25;5067649;28;45422;-76
2022/11/15 03:41:34;;;;;;;;;2.33;2.00;;;;;10.51;100.00;100403.34;5067947;28;45239;-76
2022/11/15 03:44:45;;;;;;;;;3.33;3.00;;;;;10.60;100.00;100412.06;5064612;28;45305;-76
2022/11/15 03:47:45;;;;;;;;;3.00;3.00;;;;;10.61;100.00;100403.06;5055659;28;45576;-76
2022/11/15 03:50:15;;;;;;;;;2.00;2.00;;;;;10.62;100.00;100399.41;5042155;28;45420;-76
2022/11/15 03:52:42;;;;;;;;;3.00;3.00;;;;;10.68;100.00;100404.00;5068062;28;45315;-76
2022/11/15 03:55:10;;;;;;;;;4.33;3.33;;;;;10.70;100.00;100401.97;5067900;28;45544;-76
2022/11/15 03:57:36;;;;;;;;;3.00;2.00;;;;;10.68;100.00;100381.88;5069295;28;45251;-76
2022/11/15 04:00:03;;;;;;;;;3.00;3.00;;;;;10.73;100.00;100391.00;5066259;28;45234;-76
2022/11/15 04:02:28;;;;;;;;;2.33;2.33;;;;;10.71;100.00;100377.03;5067046;28;45632;-76
2022/11/15 04:04:54;;;;;;;;;3.67;3.00;;;;;10.74;100.00;100370.53;5068805;28;45362;-76
2022/11/15 04:07:19;;;;;;;;;4.00;2.00;;;;;10.76;100.00;100370.34;5069651;28;45372;-76
2022/11/15 04:10:03;;;;;;;;;2.00;2.00;;;;;10.77;100.00;100359.53;5067102;28;45322;-76
2022/11/15 04:12:41;;;;;;;;;3.00;3.00;;;;;10.85;100.00;100371.91;5066477;28;46460;-76
2022/11/15 04:15:09;;;;;;;;;5.67;4.67;;;;;10.78;100.00;100365.69;5068488;28;44758;-76
2022/11/15 04:17:52;;;;;;;;;3.00;3.00;;;;;10.85;100.00;100369.25;5068317;28;45367;-76
2022/11/15 04:26:14;;;;;;;;;4.00;4.00;;;;;10.82;100.00;100377.59;5074981;28;45381;-76
2022/11/15 04:29:34;;;;;;;;;6.33;4.67;;;;;10.83;100.00;100374.75;5076313;28;44709;-76
2022/11/15 04:31:25;;;;;;;;;4.67;3.67;;;;;10.75;100.00;100366.88;5075849;28;45286;-76
2022/11/15 04:33:50;;;;;;;;;6.00;4.00;;;;;10.77;100.00;100364.03;5075634;28;45965;-76
2022/11/15 04:39:00;;;;;;;;;6.00;4.67;;;;;10.79;100.00;100368.16;5073703;28;45283;-76
2022/11/15 04:41:25;;;;;;;;;5.00;3.00;;;;;10.72;100.00;100353.97;5075422;28;45525;-76
2022/11/15 04:43:50;;;;;;;;;2.00;2.00;;;;;10.77;100.00;100350.75;5072539;28;47285;-76
2022/11/15 04:46:16;;;;;;;;;6.00;4.00;;;;;10.77;100.00;100353.41;5073924;28;45790;-77
2022/11/15 04:48:41;;;;;;;;;5.67;4.00;;;;;10.71;100.00;100341.66;5072702;28;45220;-76
2022/11/15 04:51:07;;;;;;;;;7.67;4.00;;;;;10.68;100.00;100334.06;5070975;28;47894;-76
2022/11/15 04:53:32;;;;;;;;;5.00;5.00;;;;;10.70;100.00;100348.00;5072793;28;47029;-76
2022/11/15 04:55:57;;;;;;;;;3.00;3.00;;;;;10.68;100.00;100345.50;5072271;28;45430;-76
2022/11/15 04:58:23;;;;;;;;;5.00;4.00;;;;;10.69;100.00;100339.19;5071877;28;45281;-76
2022/11/15 05:00:48;;;;;;;;;5.67;3.67;;;;;10.64;100.00;100330.94;5075186;28;55300;-76
2022/11/15 05:05:58;;;;;;;;;7.00;3.67;;;;;10.65;100.00;100334.44;5073226;28;44756;-75
2022/11/15 05:08:24;;;;;;;;;3.00;3.00;;;;;10.64;100.00;100332.78;5069043;28;45362;-76
2022/11/15 05:10:49;;;;;;;;;2.67;2.67;;;;;10.58;100.00;100326.38;5071635;28;45606;-76
2022/11/15 05:13:15;;;;;;;;;3.00;2.67;;;;;10.63;100.00;100326.66;5072271;28;45372;-76
2022/11/15 05:15:40;;;;;;;;;4.00;3.00;;;;;10.60;100.00;100321.72;5069198;28;45314;-76
2022/11/15 05:18:05;;;;;;;;;4.67;3.00;;;;;10.62;100.00;100330.31;5066329;28;45350;-76
2022/11/15 05:20:31;;;;;;;;;4.33;4.33;;;;;10.62;100.00;100319.66;5068563;28;45261;-76
2022/11/15 05:22:56;;;;;;;;;2.00;2.00;;;;;10.54;100.00;100319.78;5072230;28;46144;-76
2022/11/15 05:25:22;;;;;;;;;3.33;3.33;;;;;10.56;100.00;100307.13;5068074;28;45217;-76
2022/11/15 05:27:48;;;;;;;;;3.00;3.00;;;;;10.58;100.00;100307.78;5068702;28;45255;-76
2022/11/15 05:30:14;;;;;;;;;3.67;2.00;;;;;10.48;100.00;100298.25;5069630;28;45306;-76
2022/11/15 05:32:39;;;;;;;;;4.67;3.00;;;;;10.56;100.00;100312.44;5067313;28;45323;-75
2022/11/15 05:35:08;;;;;;;;;3.33;3.33;;;;;10.50;100.00;100306.03;5070688;28;45375;-76
2022/11/15 05:37:34;;;;;;;;;3.00;3.00;;;;;10.50;100.00;100302.56;5067718;28;45260;-76
2022/11/15 05:39:59;;;;;;;;;5.00;3.67;;;;;10.50;100.00;100298.06;5068585;28;45415;-76
2022/11/15 05:42:26;;;;;;;;;0.00;0.00;;;;;10.44;100.00;100296.94;5068487;28;47462;-77
2022/11/15 05:44:51;;;;;;;;;3.00;3.00;;;;;10.46;100.00;100304.75;5068909;28;45315;-77
2022/11/15 05:47:22;;;;;;;;;2.00;2.00;;;;;10.54;100.00;100317.94;5067912;28;45312;-77
2022/11/15 05:49:51;;;;;;;;;2.00;2.00;;;;;10.48;100.00;100313.38;5065935;28;45686;-77
2022/11/15 05:52:19;;;;;;;;;3.00;3.00;;;;;10.46;100.00;100316.22;5053204;28;45363;-76
2022/11/15 05:54:45;;;;;;;;;2.33;2.00;;;;;10.50;100.00;100321.16;5067867;28;45457;-76
2022/11/15 05:57:10;;;;;;;;;4.00;2.33;;;;;10.52;100.00;100327.94;5069140;28;45286;-77
2022/11/15 05:59:36;;;;;;;;;4.00;4.00;;;;;10.52;100.00;100327.09;5072125;28;46098;-77
2022/11/15 06:02:02;;;;;;;;;1.00;0.00;;;;;10.48;100.00;100311.53;5072903;28;45271;-77
2022/11/15 06:04:27;;;;;;;;;3.00;3.00;;;;;10.52;100.00;100314.66;5069064;28;45333;-76
2022/11/15 06:06:52;;;;;;;;;4.67;4.67;;;;;10.55;100.00;100311.63;5069157;28;45362;-77
2022/11/15 06:09:18;;;;;;;;;6.00;4.00;;;;;10.59;100.00;100304.94;5067222;28;45447;-77
2022/11/15 06:11:47;;;;;;;;;3.67;3.00;;;;;10.61;100.00;100302.09;5065199;28;48236;-76
2022/11/15 06:14:12;;;;;;;;;3.00;3.00;;;;;10.65;100.00;100307.88;5066079;28;45316;-76
2022/11/15 06:16:38;;;;;;;;;2.00;2.00;;;;;10.62;100.00;100295.75;5066248;28;45955;-77
2022/11/15 06:19:03;;;;;;;;;4.33;3.00;;;;;10.68;100.00;100297.66;5065397;28;47561;-77
2022/11/15 06:21:29;;;;;;;;;3.00;2.00;;;;;10.69;100.00;100288.69;5065675;28;57968;-77
2022/11/15 06:23:54;;;;;;;;;1.33;1.33;;;;;10.73;100.00;100284.66;5064748;28;45384;-76
2022/11/15 06:26:19;;;;;;;;;2.00;2.00;;;;;10.78;100.00;100280.63;5067065;28;45449;-77
2022/11/15 06:28:45;;;;;;;;;1.67;1.67;;;;;10.78;100.00;100268.16;5065899;28;45272;-77
2022/11/15 06:31:11;;;;;;;;;2.00;2.00;;;;;10.80;100.00;100259.97;5064633;28;48055;-76
2022/11/15 06:33:39;;;;;;;;;3.33;3.00;;;;;10.76;100.00;100248.91;5068651;28;45337;-76
2022/11/15 06:36:07;;;;;;;;;4.00;2.67;;;;;10.85;100.00;100254.94;5067274;28;45162;-77
2022/11/15 06:38:33;;;;;;;;;2.00;2.00;;;;;10.88;100.00;100257.22;5068593;28;45526;-76
2022/11/15 06:41:04;;;;;;;;;3.00;3.00;;;;;10.89;100.00;100250.06;5065800;28;46078;-76
2022/11/15 06:43:29;;;;;;;;;3.00;2.33;;;;;10.84;100.00;100237.34;5063980;28;45331;-76
2022/11/15 06:45:54;;;;;;;;;4.33;4.33;;;;;10.92;100.00;100249.69;5066116;28;45202;-76
2022/11/15 06:48:20;;;;;;;;;4.33;4.33;;;;;10.95;100.00;100241.31;5066405;28;51312;-77
2022/11/15 06:50:59;;;;;;;;;2.33;2.33;;;;;10.97;100.00;100242.78;5070188;28;46017;-76
2022/11/15 06:53:25;;;;;;;;;2.50;2.50;;;;;10.89;100.00;100218.97;5067834;28;45553;-77
2022/11/15 06:55:50;;;;;;;;;2.00;2.00;;;;;10.99;100.00;100231.97;5065556;28;45353;-76
2022/11/15 06:58:16;;;;;;;;;3.00;3.00;;;;;10.97;100.00;100221.53;5062246;28;46305;-76
2022/11/15 07:00:42;;;;;;;;;3.00;3.00;;;;;11.05;100.00;100228.53;5059027;28;46984;-76
2022/11/15 07:03:08;;;;;;;;;3.00;3.00;;;;;11.39;100.00;100225.34;5066850;28;45314;-77
2022/11/15 07:05:33;;;;;;;;;4.33;4.33;;;;;11.41;100.00;100213.50;5067591;28;45271;-76
2022/11/15 07:07:59;;;;;;;;;3.67;3.67;;;;;11.27;100.00;100228.53;5072701;28;45303;-77
2022/11/15 07:10:26;;;;;;;;;5.00;4.00;;;;;11.07;100.00;100217.69;5076613;28;46282;-76
2022/11/15 07:12:52;;;;;;;;;6.00;4.33;;;;;11.08;100.00;100228.16;5075427;28;46242;-76
2022/11/15 07:15:19;;;;;;;;;4.00;4.00;;;;;11.11;100.00;100222.44;5074419;28;44700;-77
2022/11/15 07:17:45;;;;;;;;;4.33;4.33;;;;;11.06;100.00;100208.91;5075141;28;46443;-77
2022/11/15 07:20:11;;;;;;;;;3.33;3.33;;;;;11.18;100.00;100211.88;5073804;28;45352;-77
2022/11/15 07:22:37;;;;;;;;;3.33;3.33;;;;;11.14;100.00;100196.50;5075954;28;45295;-76
2022/11/15 07:25:02;;;;;;;;;5.00;5.00;;;;;11.18;100.00;100201.25;5076681;28;45316;-77
2022/11/15 07:27:28;;;;;;;;;4.67;4.00;;;;;11.19;100.00;100197.56;5077707;28;45388;-76
2022/11/15 07:29:53;;;;;;;;;3.33;3.00;;;;;11.21;100.00;100195.56;5064064;28;45452;-76
2022/11/15 07:32:18;;;;;;;;;4.00;3.33;;;;;11.26;100.00;100197.63;5066091;28;45330;-76
2022/11/15 07:34:45;;;;;;;;;7.00;6.00;;;;;11.23;100.00;100193.50;5066987;28;45271;-77
2022/11/15 07:37:11;;;;;;;;;4.33;4.33;;;;;11.30;100.00;100200.72;5069126;28;45390;-77
2022/11/15 07:39:37;;;;;;;;;3.67;3.67;;;;;11.28;100.00;100189.47;5067480;28;47262;-77
2022/11/15 07:44:46;;;;;;;;;5.33;4.33;;;;;11.29;100.00;100183.94;5064220;28;45339;-76
2022/11/15 07:47:11;;;;;;;;;4.33;4.33;;;;;11.32;100.00;100180.88;5070605;28;45501;-77
2022/11/15 07:49:37;;;;;;;;;4.67;4.67;;;;;11.40;100.00;100189.75;5066678;28;46669;-77
2022/11/15 07:52:02;;;;;;;;;5.00;5.00;;;;;11.40;100.00;100166.63;5065708;28;52787;-77
2022/11/15 07:54:27;;;;;;;;;6.00;6.00;;;;;11.47;100.00;100170.16;5066456;28;45825;-77
2022/11/15 07:56:53;;;;;;;;;4.00;3.00;;;;;11.49;100.00;100168.13;5074689;28;57228;-76
2022/11/15 07:59:19;;;;;;;;;4.00;4.00;;;;;11.56;100.00;100184.16;5073028;28;50523;-76
2022/11/15 08:01:44;;;;;;;;;4.33;4.00;;;;;11.55;100.00;100177.16;5078485;28;45756;-76
2022/11/15 08:04:11;;;;;;;;;3.67;3.67;;;;;11.61;100.00;100172.88;5079988;28;44799;-76
2022/11/15 08:06:37;;;;;;;;;3.00;1.67;;;;;11.71;100.00;100168.03;5079014;28;46377;-76
2022/11/15 08:09:02;;;;;;;;;4.00;4.00;;;;;11.73;100.00;100170.50;5082617;28;45324;-76
2022/11/15 08:11:27;;;;;;;;;4.33;3.00;;;;;11.77;100.00;100152.31;5083060;28;44626;-76
2022/11/15 08:13:53;;;;;;;;;4.00;4.00;;;;;11.83;100.00;100152.34;5078693;28;44714;-76
2022/11/15 08:16:18;;;;;;;;;6.00;5.00;;;;;11.87;100.00;100144.78;5079836;28;44974;-76
2022/11/15 08:18:43;;;;;;;;;4.67;4.67;;;;;11.97;100.00;100147.91;5079723;28;45068;-75
2022/11/15 08:21:12;;;;;;;;;4.00;3.00;;;;;11.94;100.00;100140.31;5081805;28;45711;-76
2022/11/15 08:23:38;;;;;;;;;3.67;3.67;;;;;11.97;100.00;100129.25;5081063;28;44771;-76
2022/11/15 08:26:04;;;;;;;;;5.33;3.33;;;;;12.03;100.00;100127.63;5080960;28;51791;-76
2022/11/15 08:28:30;;;;;;;;;4.00;3.00;;;;;12.08;100.00;100137.72;5079618;28;47290;-79
2022/11/15 08:30:56;;;;;;;;;4.00;4.00;;;;;12.07;100.00;100123.63;5083539;28;45258;-76
2022/11/15 08:33:21;;;;;;;;;3.00;3.00;;;;;12.20;100.00;100128.16;5083790;28;44796;-77
2022/11/15 08:35:47;;;;;;;;;4.00;4.00;;;;;12.24;100.00;100125.91;5083094;28;44782;-78
2022/11/15 08:38:12;;;;;;;;;3.00;3.00;;;;;12.19;100.00;100121.19;5084881;28;45253;-77
2022/11/15 08:40:38;;;;;;;;;4.00;3.00;;;;;12.22;100.00;100136.75;5079296;28;44669;-77
2022/11/15 08:43:03;;;;;;;;;4.00;3.00;;;;;12.31;100.00;100132.09;5072858;28;45250;-77
2022/11/15 08:45:34;;;;;;;;;3.00;3.00;;;;;12.36;100.00;100123.47;5074799;28;45591;-77
2022/11/15 08:48:01;;;;;;;;;6.00;4.67;;;;;12.40;100.00;100122.06;5078467;28;46784;-78
2022/11/15 08:50:27;;;;;;;;;6.67;6.00;;;;;12.45;100.00;100119.59;5084645;28;45350;-78
2022/11/15 08:52:52;;;;;;;;;4.00;4.00;;;;;12.56;100.00;100125.34;5083687;28;44781;-77
2022/11/15 08:55:17;;;;;;;;;4.67;4.00;;;;;12.60;100.00;100127.41;5081433;28;49534;-76
2022/11/15 08:57:43;;;;;;;;;3.00;3.00;;;;;12.67;100.00;100108.78;5084156;28;47044;-77
2022/11/15 09:00:09;;;;;;;;;3.67;3.67;;;;;12.65;100.00;100086.81;5085933;27;44713;-81
2022/11/15 09:02:37;;;;;;;;;3.00;3.00;;;;;12.88;100.00;100107.75;5085785;27;45483;-77
2022/11/15 09:05:02;;;;;;;;;2.00;2.00;;;;;12.97;100.00;100103.06;5082739;28;45620;-77
2022/11/15 09:07:29;;;;;;;;;2.00;2.00;;;;;13.09;100.00;100102.41;5081831;28;46291;-77
2022/11/15 09:09:54;;;;;;;;;3.67;3.00;;;;;13.17;100.00;100091.53;5073505;28;44776;-77
2022/11/15 09:12:20;;;;;;;;;4.33;4.33;;;;;13.18;100.00;100071.84;5081609;28;45221;-77
2022/11/15 09:14:45;;;;;;;;;3.33;3.33;;;;;13.24;100.00;100073.69;5080090;28;46388;-77
2022/11/15 09:17:11;;;;;;;;;2.00;2.00;;;;;13.35;100.00;100084.75;5082518;27;45381;-77
2022/11/15 09:19:36;;;;;;;;;3.33;3.33;;;;;13.36;100.00;100071.19;5077668;28;44864;-77
2022/11/15 09:22:05;;;;;;;;;3.33;3.33;;;;;13.44;100.00;100069.31;5073831;28;45216;-77
2022/11/15 09:24:31;;;;;;;;;2.00;1.67;;;;;13.43;100.00;100055.13;5075848;28;45330;-78
2022/11/15 09:26:56;;;;;;;;;3.00;3.00;;;;;13.54;100.00;100066.22;5074322;28;59189;-77
2022/11/15 09:29:21;;;;;;;;;2.67;2.67;;;;;13.56;100.00;100056.97;5077944;28;44783;-78
2022/11/15 09:31:47;;;;;;;;;4.00;4.00;;;;;13.57;100.00;100052.44;5077464;28;45314;-78
2022/11/15 09:34:12;;;;;;;;;3.67;3.67;;;;;13.54;100.00;100045.69;5078660;28;45243;-77
2022/11/15 09:36:37;;;;;;;;;2.67;2.33;;;;;13.60;100.00;100050.19;5080108;28;46950;-78
2022/11/15 09:39:03;;;;;;;;;5.00;4.33;;;;;13.61;100.00;100040.31;5079185;27;44986;-77
2022/11/15 09:41:50;;;;;;;;;2.33;2.33;;;;;13.60;100.00;100042.19;5078901;28;45325;-78
2022/11/15 09:44:38;;;;;;;;;3.00;3.00;;;;;13.65;100.00;100030.03;5079826;28;46215;-77
2022/11/15 09:47:10;;;;;;;;;3.00;3.00;;;;;13.72;100.00;100046.84;5079238;28;46294;-77
2022/11/15 09:49:35;;;;;;;;;2.00;2.00;;;;;13.72;100.00;100026.31;5081409;28;45503;-77
2022/11/15 09:52:01;;;;;;;;;5.00;4.00;;;;;13.75;100.00;100041.09;5081389;28;45493;-77
2022/11/15 09:54:29;;;;;;;;;2.00;2.00;;;;;13.86;100.00;100055.63;5084605;28;44787;-76
2022/11/15 09:57:06;;;;;;;;;2.33;2.33;;;;;13.93;100.00;100047.56;5064503;28;47395;-76
2022/11/15 09:59:55;;;;;;;;;3.33;3.00;;;;;13.98;100.00;100056.56;5083142;28;45342;-76
2022/11/15 10:02:49;;;;;;;;;2.33;2.33;;;;;13.96;100.00;100044.47;5084753;28;45171;-76
2022/11/15 10:05:19;;;;;;;;;5.00;5.00;;;;;14.03;100.00;100063.97;5077954;28;46137;-76
2022/11/15 10:08:10;;;;;;;;;7.33;6.33;;;;;14.03;100.00;100052.47;5078980;28;47038;-76
2022/11/15 10:10:41;;;;;;;;;5.33;5.33;;;;;14.03;100.00;100045.25;5078784;28;44695;-77
2022/11/15 10:13:30;;;;;;;;;6.00;5.00;;;;;13.99;100.00;100038.72;5084767;28;44738;-77
2022/11/15 10:16:20;;;;;;;;;4.67;4.67;;;;;13.79;100.00;100004.06;5089175;28;46581;-77
2022/11/15 10:19:07;;;;;;;;;7.67;7.00;;;;;14.12;100.00;100045.81;5084457;28;46514;-77
2022/11/15 10:21:45;;;;;;;;;7.00;5.67;;;;;14.11;100.00;100045.03;5075108;28;46334;-78
2022/11/15 10:24:12;;;;;;;;;14.67;13.33;;;;;14.12;100.00;100040.47;5073464;28;45434;-80
2022/11/15 10:26:39;;;;;;;;;13.67;13.33;;;;;14.10;100.00;100032.66;5060723;28;45518;-79
2022/11/15 10:29:07;;;;;;;;;13.33;12.67;;;;;14.04;100.00;100011.34;5077320;28;47351;-79
2022/11/15 10:31:32;;;;;;;;;11.00;10.33;;;;;14.12;100.00;100013.75;5072083;28;45379;-80
2022/11/15 10:34:12;;;;;;;;;10.67;10.67;;;;;14.11;100.00;100002.25;5063164;28;45588;-80
2022/11/15 10:36:37;;;;;;;;;12.00;9.00;;;;;14.10;100.00;99997.13;5071592;28;45311;-79
2022/11/15 10:39:03;;;;;;;;;11.67;9.67;;;;;14.14;100.00;100001.00;5069116;28;45346;-80
2022/11/15 10:41:31;;;;;;;;;8.00;6.00;;;;;14.14;100.00;99998.34;5066406;28;45402;-79
2022/11/15 10:44:20;;;;;;;;;6.67;6.67;;;;;14.15;100.00;99981.25;5065095;28;45450;-80
2022/11/15 10:47:03;;;;;;;;;3.67;3.67;;;;;14.07;100.00;99970.84;5061377;28;46048;-78
2022/11/15 10:49:30;;;;;;;;;4.67;4.00;;;;;14.13;100.00;99989.50;5062938;28;46513;-79
2022/11/15 10:52:04;;;;;;;;;3.00;3.00;;;;;14.03;100.00;99962.44;5061559;28;45329;-79
2022/11/15 10:54:41;;;;;;;;;3.00;3.00;;;;;14.14;100.00;99975.13;5061516;28;45372;-79
2022/11/15 10:57:19;;;;;;;;;3.00;3.00;;;;;14.07;100.00;99954.81;5060514;28;46369;-81
2022/11/15 10:59:52;;;;;;;;;4.00;4.00;;;;;14.15;100.00;99951.88;5061091;28;47485;-79
2022/11/15 11:02:37;;;;;;;;;4.00;4.00;;;;;14.16;100.00;99942.84;5061601;28;45284;-80
2022/11/15 11:05:06;;;;;;;;;4.33;3.00;;;;;14.17;100.00;99944.47;5061170;28;45379;-77
2022/11/15 11:07:34;;;;;;;;;4.00;2.33;;;;;14.18;100.00;99938.06;5059223;28;45468;-79
2022/11/15 11:10:21;;;;;;;;;4.00;4.00;;;;;14.17;100.00;99924.94;5059482;28;45469;-78
2022/11/15 11:12:47;;;;;;;;;3.00;3.00;;;;;14.12;100.00;99925.56;5059780;28;45295;-79
2022/11/15 11:15:14;;;;;;;;;3.00;3.00;;;;;14.15;100.00;99927.81;5061944;28;45455;-78
2022/11/15 11:18:15;;;;;;;;;3.67;3.67;;;;;14.16;100.00;99932.16;5059893;28;45251;-77
2022/11/15 11:20:54;;;;;;;;;4.00;4.00;;;;;14.11;100.00;99922.09;5042040;28;45372;-77
2022/11/15 11:23:52;;;;;;;;;4.33;3.33;;;;;14.14;100.00;99918.16;5059227;28;45290;-76
2022/11/15 11:26:55;;;;;;;;;3.33;3.00;;;;;14.09;100.00;99909.97;5036675;28;45476;-77
2022/11/15 11:29:44;;;;;;;;;4.00;3.33;;;;;14.05;100.00;99900.78;5049202;28;45355;-78
2022/11/15 11:32:22;;;;;;;;;4.00;4.00;;;;;14.12;100.00;99909.53;5064514;28;46569;-79
2022/11/15 11:35:06;;;;;;;;;6.00;4.00;;;;;14.09;100.00;99908.13;5068928;28;45160;-76
2022/11/15 11:37:43;;;;;;;;;3.67;3.67;;;;;14.07;100.00;99899.50;5065624;28;45282;-78
2022/11/15 11:40:18;;;;;;;;;3.33;3.33;;;;;14.09;100.00;99896.63;5061817;28;46155;-77
2022/11/15 11:43:05;;;;;;;;;3.33;3.33;;;;;14.11;100.00;99897.22;5047943;28;46229;-78
2022/11/15 11:45:36;;;;;;;;;5.00;5.00;;;;;14.11;100.00;99887.38;5063326;28;45448;-77
2022/11/15 11:48:39;;;;;;;;;29.33;24.33;;;;;14.08;100.00;99879.78;5067288;28;45321;-76
2022/11/15 11:51:16;;;;;;;;;8.67;8.00;;;;;13.97;100.00;99867.94;5055963;28;46550;-78